Terminal Aerodrome Forecast
Issued by NWS Nashville, TN

Home | Current Version | Previous Version | Text Only | Print | Product List | Glossary On
Versions: 1 2 3 4 5 6 7 8 9 10 11 12 13
256
FTUS44 KOHX 220520
TAFBNA
TAF
KBNA 220520Z 2206/2306 11005KT P6SM BKN250
     FM221100 12006KT P6SM VCSH BKN050 OVC100
     FM221300 11009KT 6SM -SHRA OVC040
     FM221600 11011G17KT 5SM -SHRA OVC025
     FM230100 10013G19KT 3SM -SHRA OVC015=

USA.gov is the U.S. government's official web portal to all federal, state and local government web resources and services.